createdAt,value
2017-10-19T00:01:28.515Z,13.10
2017-10-19T00:03:56.027Z,13.00
2017-10-19T00:06:24.581Z,13.00
2017-10-19T00:08:52.437Z,13.00
2017-10-19T00:11:19.979Z,12.90
2017-10-19T00:13:47.537Z,12.90
2017-10-19T00:16:15.685Z,12.90
2017-10-19T00:18:43.256Z,12.90
2017-10-19T00:21:10.787Z,12.90
2017-10-19T00:23:39.101Z,12.80
2017-10-19T00:26:06.646Z,12.80
2017-10-19T00:28:34.177Z,12.80
2017-10-19T00:31:01.998Z,12.70
2017-10-19T00:33:30.407Z,12.70
2017-10-19T00:35:57.941Z,12.70
2017-10-19T00:38:25.516Z,12.70
2017-10-19T00:40:53.064Z,12.60
2017-10-19T00:43:20.651Z,12.60
2017-10-19T00:45:48.175Z,12.60
2017-10-19T00:48:15.736Z,12.60
2017-10-19T00:50:43.402Z,12.60
2017-10-19T00:53:11.721Z,12.50
2017-10-19T00:55:39.299Z,12.50
2017-10-19T00:58:10.320Z,12.50
2017-10-19T01:00:37.869Z,12.50
2017-10-19T01:03:05.426Z,12.50
2017-10-19T01:05:32.946Z,12.50
2017-10-19T01:08:00.759Z,12.40
2017-10-19T01:10:28.294Z,12.40
2017-10-19T01:12:55.828Z,12.40
2017-10-19T01:15:23.384Z,12.40
2017-10-19T01:17:51.688Z,12.30
2017-10-19T01:20:19.399Z,12.30
2017-10-19T01:22:46.918Z,12.30
2017-10-19T01:25:14.427Z,12.20
2017-10-19T01:27:42.018Z,12.20
2017-10-19T01:30:09.553Z,12.20
2017-10-19T01:32:38.193Z,12.20
2017-10-19T01:35:05.724Z,12.10
2017-10-19T01:37:33.267Z,12.10
2017-10-19T01:40:01.592Z,12.10
2017-10-19T01:42:29.109Z,12.10
2017-10-19T01:44:57.446Z,12.00
2017-10-19T01:47:24.974Z,12.00
2017-10-19T01:49:59.487Z,12.00
2017-10-19T01:52:26.994Z,12.00
2017-10-19T01:54:54.509Z,12.10
2017-10-19T01:57:22.040Z,12.10
2017-10-19T01:59:50.348Z,12.30
2017-10-19T02:02:18.219Z,12.30
2017-10-19T02:04:45.738Z,12.40
2017-10-19T02:07:13.273Z,12.40
2017-10-19T02:09:40.810Z,12.50
2017-10-19T02:12:08.325Z,12.60
2017-10-19T02:14:36.711Z,12.80
2017-10-19T02:17:04.994Z,12.80
2017-10-19T02:19:33.260Z,12.90
2017-10-19T02:22:01.618Z,13.00
2017-10-19T02:24:29.128Z,12.90
2017-10-19T02:26:58.940Z,13.10
2017-10-19T02:29:26.455Z,13.10
2017-10-19T02:31:54.760Z,13.20
2017-10-19T02:34:23.081Z,13.20
2017-10-19T02:36:50.606Z,13.20
2017-10-19T02:39:18.153Z,13.20
2017-10-19T02:41:46.438Z,13.30
2017-10-19T02:44:13.958Z,13.30
2017-10-19T02:46:41.513Z,13.30
2017-10-19T02:49:09.022Z,13.30
2017-10-19T02:51:36.562Z,13.40
2017-10-19T02:54:04.845Z,13.40
2017-10-19T02:56:33.119Z,13.40
2017-10-19T02:59:01.434Z,13.40
2017-10-19T03:01:28.950Z,13.40
2017-10-19T03:03:57.527Z,13.40
2017-10-19T03:06:25.046Z,13.40
2017-10-19T03:08:52.565Z,13.40
2017-10-19T03:11:20.874Z,13.50
2017-10-19T03:13:48.400Z,13.50
2017-10-19T03:16:16.978Z,13.60
2017-10-19T03:18:45.261Z,13.60
2017-10-19T03:21:13.562Z,13.60
2017-10-19T03:23:41.103Z,13.60
2017-10-19T03:26:09.391Z,13.70
2017-10-19T03:28:37.197Z,13.60
2017-10-19T03:31:04.698Z,13.60
2017-10-19T03:33:32.982Z,13.70
2017-10-19T03:36:01.297Z,13.70
2017-10-19T03:38:28.808Z,13.70
2017-10-19T03:40:57.237Z,13.70
2017-10-19T03:43:24.775Z,13.70
2017-10-19T03:45:52.296Z,13.70
2017-10-19T03:48:19.865Z,13.70
2017-10-19T03:50:47.374Z,13.80
2017-10-19T03:53:15.278Z,13.80
2017-10-19T03:55:42.795Z,13.80
2017-10-19T03:58:10.309Z,13.80
2017-10-19T04:00:38.663Z,13.80
2017-10-19T04:03:06.171Z,13.80
2017-10-19T04:05:34.759Z,13.80
2017-10-19T04:08:03.041Z,13.90
2017-10-19T04:10:30.573Z,13.90
2017-10-19T04:12:58.121Z,13.90
2017-10-19T04:15:25.635Z,13.90
2017-10-19T04:17:53.184Z,13.90
2017-10-19T04:20:20.709Z,13.90
2017-10-19T04:22:48.216Z,13.90
2017-10-19T04:25:16.804Z,13.90
2017-10-19T04:27:44.344Z,13.90
2017-10-19T04:30:12.230Z,13.90
2017-10-19T04:32:39.757Z,13.90
2017-10-19T04:35:08.040Z,13.90
2017-10-19T04:37:35.594Z,13.90
2017-10-19T04:40:03.879Z,13.80
2017-10-19T04:42:32.452Z,13.80
2017-10-19T04:45:00.743Z,13.80
2017-10-19T04:47:28.972Z,13.80
2017-10-19T04:49:56.508Z,13.80
2017-10-19T04:52:24.021Z,13.80
2017-10-19T04:54:51.573Z,13.80
2017-10-19T04:57:19.105Z,13.70
2017-10-19T04:59:46.620Z,13.70
2017-10-19T05:02:14.951Z,13.70
2017-10-19T05:04:42.474Z,13.70
2017-10-19T05:07:10.276Z,13.70
2017-10-19T05:09:37.905Z,13.70
2017-10-19T05:12:05.415Z,13.70
2017-10-19T05:14:33.601Z,13.70
2017-10-19T05:17:01.679Z,13.70
2017-10-19T05:19:30.292Z,13.70
2017-10-19T05:21:59.582Z,13.70
2017-10-19T05:24:28.195Z,13.60
2017-10-19T05:26:58.348Z,13.70
2017-10-19T05:29:27.671Z,13.60
2017-10-19T05:31:56.171Z,13.60
2017-10-19T05:34:24.487Z,13.60
2017-10-19T05:36:53.558Z,13.60
2017-10-19T05:39:21.237Z,13.60
2017-10-19T05:41:48.782Z,13.60
2017-10-19T05:44:16.344Z,13.60
2017-10-19T05:46:43.871Z,13.60
2017-10-19T05:49:12.342Z,13.60
2017-10-19T05:51:40.200Z,13.60
2017-10-19T05:54:07.748Z,13.60
2017-10-19T05:56:35.586Z,13.60
2017-10-19T05:59:03.105Z,13.60
2017-10-19T06:01:30.638Z,13.60
2017-10-19T06:03:58.193Z,13.60
2017-10-19T06:06:25.697Z,13.60
2017-10-19T06:08:54.041Z,13.60
2017-10-19T06:11:21.548Z,13.60
2017-10-19T06:13:49.834Z,13.70
2017-10-19T06:16:17.386Z,13.60
2017-10-19T06:18:45.677Z,13.70
2017-10-19T06:21:15.124Z,13.70
2017-10-19T06:23:44.157Z,13.70
2017-10-19T06:31:40.551Z,13.70
2017-10-19T06:34:08.498Z,13.70
2017-10-19T06:36:36.773Z,13.70
2017-10-19T06:39:05.056Z,13.70
2017-10-19T06:41:33.378Z,13.80
2017-10-19T06:44:00.898Z,13.80
2017-10-19T06:46:29.506Z,13.80
2017-10-19T06:48:57.028Z,13.80
2017-10-19T06:51:25.311Z,13.80
2017-10-19T06:53:54.175Z,13.90
2017-10-19T06:56:21.686Z,13.90
2017-10-19T06:58:49.225Z,13.90
2017-10-19T07:01:17.515Z,14.00
2017-10-19T07:03:45.819Z,14.00
2017-10-19T07:06:13.376Z,14.00
2017-10-19T07:08:40.895Z,14.10
2017-10-19T07:11:09.213Z,14.10
2017-10-19T07:13:36.738Z,14.10
2017-10-19T07:16:05.024Z,14.20
2017-10-19T07:18:33.330Z,14.20
2017-10-19T07:21:00.842Z,14.20
2017-10-19T07:23:28.659Z,14.20
2017-10-19T07:25:56.181Z,14.20
2017-10-19T07:28:24.471Z,14.30
2017-10-19T07:30:52.792Z,14.40
2017-10-19T07:33:20.333Z,14.40
2017-10-19T07:35:48.145Z,14.50
2017-10-19T07:38:15.660Z,14.50
2017-10-19T07:40:43.173Z,14.50
2017-10-19T07:43:11.533Z,14.60
2017-10-19T07:45:39.062Z,14.60
2017-10-19T07:48:06.603Z,14.60
2017-10-19T07:50:34.124Z,14.70
2017-10-19T07:53:01.689Z,14.70
2017-10-19T07:55:29.234Z,14.70
2017-10-19T07:57:56.761Z,14.70
2017-10-19T08:00:24.629Z,14.70
2017-10-19T08:02:52.151Z,14.70
2017-10-19T08:05:20.422Z,14.80
2017-10-19T08:07:48.828Z,14.80
2017-10-19T08:10:16.339Z,14.80
2017-10-19T08:12:43.911Z,14.90
2017-10-19T08:15:11.450Z,15.00
2017-10-19T08:17:38.991Z,15.00
2017-10-19T08:20:06.548Z,15.10
2017-10-19T08:22:34.094Z,15.20
2017-10-19T08:25:01.642Z,15.20
2017-10-19T08:27:29.167Z,15.30
2017-10-19T08:29:56.676Z,15.30
2017-10-19T08:32:24.224Z,15.40
2017-10-19T08:34:51.752Z,15.40
2017-10-19T08:37:20.407Z,15.60
2017-10-19T08:39:47.927Z,15.60
2017-10-19T08:42:15.460Z,15.70
2017-10-19T08:44:43.004Z,15.80
2017-10-19T08:47:10.566Z,15.90
2017-10-19T08:49:38.382Z,16.00
2017-10-19T08:52:05.892Z,16.10
2017-10-19T08:54:33.415Z,16.20
2017-10-19T08:57:00.939Z,16.30
2017-10-19T08:59:29.219Z,16.50
2017-10-19T09:01:57.807Z,16.60
2017-10-19T09:04:26.116Z,16.70
2017-10-19T09:06:53.634Z,16.70
2017-10-19T09:09:21.955Z,16.90
2017-10-19T09:11:50.245Z,16.90
2017-10-19T09:14:17.814Z,17.00
2017-10-19T09:16:45.323Z,17.10
2017-10-19T09:19:13.620Z,17.30
2017-10-19T09:21:41.158Z,17.20
2017-10-19T09:24:09.434Z,17.40
2017-10-19T09:26:37.998Z,17.50
2017-10-19T09:29:05.518Z,17.50
2017-10-19T09:31:33.024Z,17.60
2017-10-19T09:34:00.567Z,17.70
2017-10-19T09:36:28.066Z,17.80
2017-10-19T09:38:56.640Z,18.00
2017-10-19T09:41:24.919Z,18.10
2017-10-19T09:43:53.207Z,18.20
2017-10-19T09:46:21.516Z,18.20
2017-10-19T09:48:49.099Z,18.30
2017-10-19T09:51:16.646Z,18.30
2017-10-19T09:53:44.175Z,18.40
2017-10-19T09:56:11.704Z,18.50
2017-10-19T09:58:40.024Z,18.60
2017-10-19T10:01:07.540Z,18.50
2017-10-19T10:03:35.087Z,18.60
2017-10-19T10:06:02.600Z,18.70
2017-10-19T10:08:30.132Z,18.80
2017-10-19T10:10:58.418Z,18.90
2017-10-19T10:13:26.726Z,19.00
2017-10-19T10:15:54.229Z,18.90
2017-10-19T10:18:21.832Z,19.00
2017-10-19T10:20:49.361Z,19.10
2017-10-19T10:23:17.692Z,19.20
2017-10-19T10:25:45.239Z,19.20
2017-10-19T10:28:12.783Z,19.20
2017-10-19T10:30:40.330Z,19.30
2017-10-19T10:33:08.619Z,19.50
2017-10-19T10:35:36.174Z,19.40
2017-10-19T10:38:04.450Z,19.60
2017-10-19T10:40:32.862Z,19.70
2017-10-19T10:43:00.369Z,19.70
2017-10-19T10:45:27.947Z,19.80
2017-10-19T10:47:56.229Z,19.90
2017-10-19T10:50:24.567Z,20.00
2017-10-19T10:52:52.111Z,20.00
2017-10-19T10:55:19.671Z,20.10
2017-10-19T10:57:47.186Z,20.10
2017-10-19T11:00:15.507Z,20.20
2017-10-19T11:02:43.026Z,20.20
2017-10-19T11:05:11.347Z,20.40
2017-10-19T11:07:38.870Z,20.40
2017-10-19T11:10:06.429Z,20.40
2017-10-19T11:12:33.959Z,20.50
2017-10-19T11:15:01.520Z,20.60
2017-10-19T11:17:29.048Z,20.70
2017-10-19T11:19:56.680Z,20.70
2017-10-19T11:22:24.222Z,20.80
2017-10-19T11:24:52.530Z,21.90
2017-10-19T11:27:20.070Z,21.80
2017-10-19T11:29:48.401Z,23.80
2017-10-19T11:32:15.916Z,23.70
2017-10-19T11:34:43.464Z,24.70
2017-10-19T11:37:11.753Z,26.70
2017-10-19T11:39:39.559Z,26.60
2017-10-19T11:42:07.068Z,27.60
2017-10-19T11:44:34.598Z,28.40
2017-10-19T11:47:02.159Z,29.20
2017-10-19T11:49:29.697Z,29.90
2017-10-19T11:51:57.263Z,30.70
2017-10-19T11:54:24.820Z,31.30
2017-10-19T11:56:52.383Z,31.90
2017-10-19T11:59:19.924Z,32.80
2017-10-19T12:01:47.477Z,33.60
2017-10-19T12:04:15.017Z,34.20
2017-10-19T12:06:43.345Z,35.30
2017-10-19T12:09:10.933Z,35.30
2017-10-19T12:11:38.443Z,35.70
2017-10-19T12:14:05.962Z,35.80
2017-10-19T12:16:34.285Z,36.20
2017-10-19T12:19:01.835Z,36.10
2017-10-19T12:21:29.387Z,36.40
2017-10-19T12:23:56.910Z,36.60
2017-10-19T12:26:24.440Z,36.80
2017-10-19T12:28:51.958Z,36.80
2017-10-19T12:31:19.526Z,36.70
2017-10-19T12:33:47.043Z,36.80
2017-10-19T12:36:14.578Z,36.90
2017-10-19T12:38:42.115Z,37.00
2017-10-19T12:41:09.983Z,37.30
2017-10-19T12:43:37.523Z,37.50
2017-10-19T12:46:05.057Z,37.50
2017-10-19T12:48:32.606Z,37.50
2017-10-19T12:51:00.119Z,37.50
2017-10-19T12:53:28.336Z,37.60
2017-10-19T12:55:55.869Z,37.80
2017-10-19T12:58:23.371Z,38.00
2017-10-19T13:00:50.926Z,38.00
2017-10-19T13:03:18.762Z,38.00
2017-10-19T13:05:46.287Z,37.90
2017-10-19T13:08:13.815Z,37.50
2017-10-19T13:10:41.381Z,37.20
2017-10-19T13:13:09.035Z,36.80
2017-10-19T13:15:36.770Z,36.40
2017-10-19T13:18:04.702Z,35.70
2017-10-19T13:20:32.233Z,34.60
2017-10-19T13:23:00.824Z,32.00
2017-10-19T13:25:29.233Z,30.90
2017-10-19T13:27:56.767Z,30.80
2017-10-19T13:30:25.165Z,29.80
2017-10-19T13:32:54.283Z,28.10
2017-10-19T13:35:21.881Z,28.00
2017-10-19T13:37:49.441Z,27.30
2017-10-19T13:40:17.106Z,26.70
2017-10-19T13:42:45.583Z,25.60
2017-10-19T13:45:13.173Z,25.60
2017-10-19T13:47:40.717Z,25.20
2017-10-19T13:50:09.039Z,24.90
2017-10-19T13:52:37.091Z,24.50
2017-10-19T13:55:05.688Z,23.90
2017-10-19T13:57:34.339Z,23.60
2017-10-19T14:00:01.860Z,23.50
2017-10-19T14:02:29.692Z,23.30
2017-10-19T14:04:58.158Z,22.80
2017-10-19T14:07:25.745Z,22.80
2017-10-19T14:09:54.193Z,22.50
2017-10-19T14:12:21.742Z,22.50
2017-10-19T14:14:49.290Z,22.40
2017-10-19T14:17:16.889Z,22.30
2017-10-19T14:19:44.603Z,22.20
2017-10-19T14:22:12.336Z,22.20
2017-10-19T14:24:40.767Z,21.90
2017-10-19T14:27:08.460Z,21.90
2017-10-19T14:29:36.054Z,21.90
2017-10-19T14:32:04.063Z,21.80
2017-10-19T14:34:31.706Z,21.70
2017-10-19T14:37:00.110Z,21.50
2017-10-19T14:39:27.908Z,21.50
2017-10-19T14:41:55.460Z,21.40
2017-10-19T14:44:23.094Z,21.30
2017-10-19T14:46:50.760Z,21.20
2017-10-19T14:49:18.412Z,21.10
2017-10-19T14:51:46.134Z,21.00
2017-10-19T14:54:14.639Z,20.80
2017-10-19T14:56:43.110Z,20.70
2017-10-19T14:59:12.207Z,20.60
2017-10-19T15:01:41.956Z,20.50
2017-10-19T15:04:10.652Z,20.40
2017-10-19T15:06:38.250Z,20.40
2017-10-19T15:09:05.979Z,20.30
2017-10-19T15:11:33.619Z,20.20
2017-10-19T15:14:01.222Z,20.10
2017-10-19T15:16:29.047Z,20.10
2017-10-19T15:18:56.556Z,20.00
2017-10-19T15:21:24.065Z,19.80
2017-10-19T15:23:51.738Z,19.70
2017-10-19T15:26:19.430Z,19.60
2017-10-19T15:28:47.016Z,19.60
2017-10-19T15:31:14.572Z,19.40
2017-10-19T15:33:42.876Z,19.30
2017-10-19T15:36:13.121Z,19.20
2017-10-19T15:38:40.742Z,19.10
2017-10-19T15:41:09.131Z,19.00
2017-10-19T15:43:37.456Z,19.00
2017-10-19T15:46:06.698Z,18.90
2017-10-19T15:48:37.942Z,18.80
2017-10-19T15:51:14.262Z,18.70
2017-10-19T15:53:41.838Z,18.60
2017-10-19T15:56:09.394Z,18.50
2017-10-19T15:58:36.945Z,18.40
2017-10-19T16:01:04.498Z,18.40
2017-10-19T16:03:32.004Z,18.30
2017-10-19T16:05:59.887Z,18.20
2017-10-19T16:08:27.460Z,18.10
2017-10-19T16:10:54.986Z,18.00
2017-10-19T16:13:22.563Z,17.90
2017-10-19T16:15:50.881Z,17.70
2017-10-19T16:18:18.459Z,17.70
2017-10-19T16:20:45.998Z,17.60
2017-10-19T16:23:13.609Z,17.50
2017-10-19T16:25:41.126Z,17.40
2017-10-19T16:28:08.679Z,17.30
2017-10-19T16:30:36.211Z,17.20
2017-10-19T16:33:03.767Z,17.20
2017-10-19T16:35:32.058Z,17.00
2017-10-19T16:38:00.434Z,16.90
2017-10-19T16:40:28.737Z,16.80
2017-10-19T16:42:56.306Z,16.80
2017-10-19T16:45:23.858Z,16.80
2017-10-19T16:47:51.414Z,16.70
2017-10-19T16:50:18.959Z,16.60
2017-10-19T16:52:47.300Z,16.50
2017-10-19T16:55:15.668Z,16.40
2017-10-19T16:57:43.940Z,16.40
2017-10-19T17:00:12.678Z,16.30
2017-10-19T17:02:41.370Z,16.20
2017-10-19T17:05:10.766Z,16.20
2017-10-19T17:07:39.463Z,16.10
2017-10-19T17:10:07.975Z,16.10
2017-10-19T17:12:35.796Z,16.00
2017-10-19T17:15:03.365Z,16.00
2017-10-19T17:17:30.896Z,15.90
2017-10-19T17:19:58.746Z,15.80
2017-10-19T17:22:26.305Z,15.70
2017-10-19T17:24:53.892Z,15.70
2017-10-19T17:27:23.468Z,15.60
2017-10-19T17:29:51.238Z,15.60
2017-10-19T17:32:19.955Z,15.50
2017-10-19T17:34:47.862Z,15.50
2017-10-19T17:37:16.359Z,15.40
2017-10-19T17:39:44.548Z,15.40
2017-10-19T17:42:13.359Z,15.30
2017-10-19T17:44:41.723Z,15.20
2017-10-19T17:47:09.327Z,15.20
2017-10-19T17:49:37.388Z,15.20
2017-10-19T17:52:04.979Z,15.20
2017-10-19T17:54:33.443Z,15.10
2017-10-19T17:57:04.002Z,15.00
2017-10-19T17:59:34.424Z,15.00
2017-10-19T18:02:02.463Z,15.00
2017-10-19T18:04:31.693Z,14.90
2017-10-19T18:07:00.480Z,14.90
2017-10-19T18:09:29.316Z,14.80
2017-10-19T18:11:57.812Z,14.80
2017-10-19T18:14:26.680Z,14.80
2017-10-19T18:16:54.680Z,14.70
2017-10-19T18:19:23.645Z,14.60
2017-10-19T18:21:51.460Z,14.60
2017-10-19T18:24:19.091Z,14.60
2017-10-19T18:26:46.940Z,14.50
2017-10-19T18:29:15.433Z,14.50
2017-10-19T18:31:44.130Z,14.40
2017-10-19T18:34:12.785Z,14.40
2017-10-19T18:36:41.400Z,14.40
2017-10-19T18:39:09.454Z,14.40
2017-10-19T18:41:38.012Z,14.30
2017-10-19T18:44:05.991Z,14.30
2017-10-19T18:46:34.248Z,14.30
2017-10-19T18:49:03.810Z,14.30
2017-10-19T18:51:32.654Z,14.20
2017-10-19T18:54:00.747Z,14.20
2017-10-19T18:56:28.680Z,14.20
2017-10-19T18:58:57.020Z,14.10
2017-10-19T19:01:24.582Z,14.10
2017-10-19T19:08:10.167Z,14.10
2017-10-19T19:10:38.503Z,14.00
2017-10-19T19:13:06.194Z,13.90
2017-10-19T19:15:33.839Z,13.90
2017-10-19T19:18:01.698Z,13.90
2017-10-19T19:20:30.366Z,13.90
2017-10-19T19:22:58.092Z,13.80
2017-10-19T19:25:26.084Z,13.80
2017-10-19T19:27:53.627Z,13.80
2017-10-19T19:30:21.804Z,13.80
2017-10-19T19:32:49.366Z,13.80
2017-10-19T19:35:17.804Z,13.80
2017-10-19T19:37:46.126Z,13.70
2017-10-19T19:40:14.002Z,13.70
2017-10-19T19:42:41.535Z,13.70
2017-10-19T19:45:09.152Z,13.60
2017-10-19T19:47:36.717Z,13.60
2017-10-19T19:52:41.532Z,13.60
2017-10-19T19:55:10.340Z,13.60
2017-10-19T19:57:37.935Z,13.60
2017-10-19T20:00:07.163Z,13.60
2017-10-19T20:02:34.749Z,13.60
2017-10-19T20:05:02.300Z,13.60
2017-10-19T20:07:30.550Z,13.60
2017-10-19T20:09:58.167Z,13.70
2017-10-19T20:12:25.884Z,13.70
2017-10-19T20:14:53.867Z,13.70
2017-10-19T20:17:21.432Z,13.70
2017-10-19T20:19:49.009Z,13.70
2017-10-19T20:22:16.629Z,13.80
2017-10-19T20:24:44.384Z,13.80
2017-10-19T20:27:12.067Z,13.80
2017-10-19T20:29:39.640Z,13.90
2017-10-19T20:32:07.960Z,13.90
2017-10-19T20:34:35.509Z,13.90
2017-10-19T20:37:03.423Z,14.00
2017-10-19T20:39:30.946Z,14.00
2017-10-19T20:41:58.525Z,14.00
2017-10-19T20:44:26.342Z,14.10
2017-10-19T20:46:53.887Z,14.10
2017-10-19T20:49:21.475Z,14.10
2017-10-19T20:51:49.652Z,14.20
2017-10-19T20:54:17.320Z,14.20
2017-10-19T20:56:44.882Z,14.30
2017-10-19T20:59:12.839Z,14.30
2017-10-19T21:01:40.950Z,14.30
2017-10-19T21:04:08.514Z,14.30
2017-10-19T21:06:36.103Z,14.40
2017-10-19T21:09:03.632Z,14.40
2017-10-19T21:11:31.937Z,14.50
2017-10-19T21:13:59.761Z,14.50
2017-10-19T21:16:27.306Z,14.50
2017-10-19T21:18:54.865Z,14.50
2017-10-19T21:21:22.432Z,14.50
2017-10-19T21:23:49.947Z,14.50
2017-10-19T21:26:17.469Z,14.60
2017-10-19T21:28:46.131Z,14.60
2017-10-19T21:31:13.640Z,14.60
2017-10-19T21:33:41.962Z,14.60
2017-10-19T21:36:09.952Z,14.60
2017-10-19T21:38:37.485Z,14.70
2017-10-19T21:41:05.069Z,14.70
2017-10-19T21:43:32.660Z,14.70
2017-10-19T21:46:00.967Z,14.70
2017-10-19T21:48:28.536Z,14.70
2017-10-19T21:50:56.386Z,14.80
2017-10-19T21:53:23.950Z,14.80
2017-10-19T21:55:51.599Z,14.80
2017-10-19T21:58:19.921Z,14.80
2017-10-19T22:00:48.211Z,14.80
2017-10-19T22:03:15.729Z,14.90
2017-10-19T22:05:43.568Z,14.90
2017-10-19T22:08:11.139Z,14.90
2017-10-19T22:10:39.422Z,14.90
2017-10-19T22:13:08.571Z,14.90
2017-10-19T22:15:36.096Z,14.90
2017-10-19T22:18:03.637Z,14.90
2017-10-19T22:20:31.446Z,14.90
2017-10-19T22:22:58.962Z,14.90
2017-10-19T22:25:27.261Z,15.00
2017-10-19T22:27:55.257Z,15.00
2017-10-19T22:30:22.795Z,15.00
2017-10-19T22:32:50.306Z,15.00
2017-10-19T22:35:17.876Z,15.00
2017-10-19T22:37:45.388Z,15.00
2017-10-19T22:40:12.966Z,15.00
2017-10-19T22:42:40.531Z,15.00
2017-10-19T22:45:08.038Z,15.00
2017-10-19T22:47:36.327Z,15.00
2017-10-19T22:50:04.148Z,14.90
2017-10-19T22:52:31.669Z,14.90
2017-10-19T22:54:59.202Z,14.90
2017-10-19T22:57:27.529Z,14.80
2017-10-19T22:59:55.035Z,14.80
2017-10-19T23:02:23.316Z,14.70
2017-10-19T23:04:50.870Z,14.70
2017-10-19T23:07:19.169Z,14.60
2017-10-19T23:09:46.690Z,14.70
2017-10-19T23:12:14.308Z,14.60
2017-10-19T23:14:41.846Z,14.60
2017-10-19T23:17:09.399Z,14.50
2017-10-19T23:19:37.982Z,14.40
2017-10-19T23:22:06.328Z,14.40
2017-10-19T23:24:33.849Z,14.40
2017-10-19T23:27:01.664Z,14.30
2017-10-19T23:29:29.187Z,14.30
2017-10-19T23:31:56.707Z,14.30
2017-10-19T23:34:24.522Z,14.20
2017-10-19T23:36:52.026Z,14.20
2017-10-19T23:39:20.341Z,14.10
2017-10-19T23:41:48.163Z,14.10
2017-10-19T23:44:16.455Z,14.00
2017-10-19T23:46:44.728Z,14.00
2017-10-19T23:49:13.322Z,14.00
2017-10-19T23:51:41.606Z,13.90
2017-10-19T23:54:09.127Z,14.00
2017-10-19T23:56:37.042Z,13.90
2017-10-19T23:59:04.552Z,13.90
